createdAt,value
2023-12-15T00:01:06.110Z,98213.25
2023-12-15T00:03:32.803Z,98216.75
2023-12-15T00:05:59.492Z,98223.66
2023-12-15T00:08:27.616Z,98220.94
2023-12-15T00:10:54.277Z,98227.25
2023-12-15T00:13:20.923Z,98236.00
2023-12-15T00:15:47.482Z,98240.94
2023-12-15T00:18:14.358Z,98245.38
2023-12-15T00:20:41.170Z,98248.81
2023-12-15T00:23:07.870Z,98254.19
2023-12-15T00:25:34.517Z,98254.66
2023-12-15T00:28:01.169Z,98258.81
2023-12-15T00:30:27.793Z,98261.50
2023-12-15T00:32:54.444Z,98271.66
2023-12-15T00:35:21.270Z,98269.25
2023-12-15T00:37:47.862Z,98267.59
2023-12-15T00:40:14.540Z,98269.22
2023-12-15T00:42:41.184Z,98267.63
2023-12-15T00:45:08.414Z,98270.06
2023-12-15T00:47:35.498Z,98272.03
2023-12-15T00:50:02.557Z,98280.34
2023-12-15T00:52:29.144Z,98278.63
2023-12-15T00:54:55.807Z,98287.56
2023-12-15T00:57:22.468Z,98291.31
2023-12-15T00:59:50.036Z,98295.41
2023-12-15T01:02:16.694Z,98297.34
2023-12-15T01:04:43.295Z,98295.41
2023-12-15T01:07:09.863Z,98305.56
2023-12-15T01:09:37.592Z,98304.31
2023-12-15T01:12:04.721Z,98309.72
2023-12-15T01:14:31.408Z,98314.13
2023-12-15T01:16:58.120Z,98312.19
2023-12-15T01:19:24.788Z,98317.38
2023-12-15T01:21:51.409Z,98317.41
2023-12-15T01:24:18.006Z,98320.84
2023-12-15T01:26:44.634Z,98331.03
2023-12-15T01:29:11.327Z,98329.06
2023-12-15T01:31:37.977Z,98341.16
2023-12-15T01:34:04.731Z,98345.56
2023-12-15T01:36:31.394Z,98352.25
2023-12-15T01:38:58.053Z,98355.63
2023-12-15T01:41:24.831Z,98357.13
2023-12-15T01:43:51.492Z,98359.59
2023-12-15T01:46:18.183Z,98360.59
2023-12-15T01:48:45.017Z,98367.78
2023-12-15T01:51:11.684Z,98366.75
2023-12-15T01:53:38.271Z,98363.53
2023-12-15T01:56:05.337Z,98371.00
2023-12-15T01:58:31.938Z,98378.56
2023-12-15T02:00:58.906Z,98386.75
2023-12-15T02:03:25.583Z,98386.97
2023-12-15T02:05:52.310Z,98389.72
2023-12-15T02:08:19.013Z,98389.97
2023-12-15T02:10:45.880Z,98392.66
2023-12-15T02:13:12.452Z,98397.59
2023-12-15T02:15:39.083Z,98397.34
2023-12-15T02:18:05.839Z,98406.72
2023-12-15T02:20:32.526Z,98411.63
2023-12-15T02:23:00.538Z,98414.59
2023-12-15T02:25:27.398Z,98421.97
2023-12-15T02:27:54.907Z,98420.00
2023-12-15T02:30:21.546Z,98430.88
2023-12-15T02:32:48.316Z,98430.66
2023-12-15T02:35:15.635Z,98432.84
2023-12-15T02:37:42.402Z,98424.75
2023-12-15T02:40:09.415Z,98434.81
2023-12-15T02:42:35.986Z,98442.22
2023-12-15T02:45:02.623Z,98441.22
2023-12-15T02:47:30.141Z,98439.25
2023-12-15T02:49:56.987Z,98454.28
2023-12-15T02:52:23.617Z,98463.63
2023-12-15T02:54:50.251Z,98459.72
2023-12-15T02:57:16.817Z,98479.66
2023-12-15T02:59:43.629Z,98482.34
2023-12-15T03:02:10.537Z,98487.56
2023-12-15T03:04:37.141Z,98485.84
2023-12-15T03:07:04.291Z,98487.28
2023-12-15T03:09:30.903Z,98496.41
2023-12-15T03:11:58.027Z,98502.84
2023-12-15T03:14:24.665Z,98513.91
2023-12-15T03:16:51.429Z,98519.59
2023-12-15T03:19:18.159Z,98527.50
2023-12-15T03:21:44.764Z,98531.16
2023-12-15T03:24:11.373Z,98535.09
2023-12-15T03:26:37.967Z,98534.38
2023-12-15T03:29:04.685Z,98538.81
2023-12-15T03:31:31.294Z,98542.50
2023-12-15T03:33:57.923Z,98538.81
2023-12-15T03:36:27.590Z,98548.91
2023-12-15T03:38:54.303Z,98560.94
2023-12-15T03:41:20.891Z,98560.69
2023-12-15T03:43:47.463Z,98567.63
2023-12-15T03:46:14.174Z,98558.03
2023-12-15T03:48:40.804Z,98563.41
2023-12-15T03:51:07.562Z,98566.88
2023-12-15T03:53:34.197Z,98574.28
2023-12-15T03:56:00.937Z,98574.53
2023-12-15T03:58:27.545Z,98580.94
2023-12-15T04:00:54.204Z,98580.94
2023-12-15T04:03:20.937Z,98578.00
2023-12-15T04:05:47.632Z,98584.16
2023-12-15T04:08:14.475Z,98594.25
2023-12-15T04:10:41.089Z,98592.28
2023-12-15T04:13:07.864Z,98583.16
2023-12-15T04:15:34.508Z,98584.19
2023-12-15T04:18:05.613Z,98606.81
2023-12-15T04:20:32.624Z,98602.13
2023-12-15T04:22:59.911Z,98610.50
2023-12-15T04:25:26.512Z,98620.09
2023-12-15T04:27:53.190Z,98628.22
2023-12-15T04:30:19.904Z,98631.91
2023-12-15T04:32:46.537Z,98636.31
2023-12-15T04:35:13.218Z,98641.75
2023-12-15T04:37:39.828Z,98641.75
2023-12-15T04:40:06.819Z,98648.63
2023-12-15T04:42:33.399Z,98651.38
2023-12-15T04:45:00.042Z,98661.94
2023-12-15T04:47:26.664Z,98658.00
2023-12-15T04:49:53.272Z,98654.78
2023-12-15T04:52:19.949Z,98659.97
2023-12-15T04:54:46.508Z,98659.22
2023-12-15T04:57:13.074Z,98660.22
2023-12-15T04:59:42.275Z,98670.56
2023-12-15T05:02:09.348Z,98661.22
2023-12-15T05:04:38.433Z,98670.56
2023-12-15T05:07:05.837Z,98673.75
2023-12-15T05:09:32.438Z,98678.69
2023-12-15T05:11:59.031Z,98685.59
2023-12-15T05:14:25.701Z,98678.19
2023-12-15T05:16:52.284Z,98686.06
2023-12-15T05:19:18.917Z,98699.34
2023-12-15T05:21:45.677Z,98686.06
2023-12-15T05:24:12.307Z,98698.84
2023-12-15T05:26:38.932Z,98697.13
2023-12-15T05:29:05.876Z,98701.06
2023-12-15T05:31:32.511Z,98698.38
2023-12-15T05:33:59.175Z,98700.34
2023-12-15T05:36:25.885Z,98719.03
2023-12-15T05:38:54.113Z,98720.75
2023-12-15T05:41:21.009Z,98729.16
2023-12-15T05:43:47.744Z,98731.84
2023-12-15T05:46:15.754Z,98741.94
2023-12-15T05:48:42.452Z,98742.63
2023-12-15T05:51:09.241Z,98746.09
2023-12-15T05:53:48.454Z,98746.09
2023-12-15T05:56:22.071Z,98748.78
2023-12-15T05:58:49.918Z,98759.13
2023-12-15T06:01:16.733Z,98760.34
2023-12-15T06:03:43.424Z,98764.00
2023-12-15T06:06:13.628Z,98774.56
2023-12-15T06:08:42.814Z,98777.75
2023-12-15T06:11:09.470Z,98766.66
2023-12-15T06:13:36.110Z,98773.03
2023-12-15T06:16:03.050Z,98784.09
2023-12-15T06:18:29.827Z,98803.72
2023-12-15T06:20:56.554Z,98811.03
2023-12-15T06:23:23.209Z,98825.19
2023-12-15T06:25:49.847Z,98819.81
2023-12-15T06:28:16.417Z,98826.69
2023-12-15T06:30:43.127Z,98835.56
2023-12-15T06:33:09.928Z,98834.56
2023-12-15T06:35:36.689Z,98849.56
2023-12-15T06:38:03.360Z,98851.97
2023-12-15T06:40:30.050Z,98865.66
2023-12-15T06:42:56.769Z,98869.00
2023-12-15T06:45:23.364Z,98874.28
2023-12-15T06:47:53.275Z,98881.09
2023-12-15T06:50:20.070Z,98894.63
2023-12-15T06:52:50.296Z,98889.16
2023-12-15T06:55:16.987Z,98895.28
2023-12-15T06:57:43.563Z,98903.47
2023-12-15T07:00:11.174Z,98913.25
2023-12-15T07:02:37.853Z,98919.47
2023-12-15T07:05:04.898Z,98919.03
2023-12-15T07:07:31.656Z,98925.31
2023-12-15T07:09:58.337Z,98937.63
2023-12-15T07:12:24.920Z,98941.75
2023-12-15T07:14:51.487Z,98956.97
2023-12-15T07:17:18.107Z,98957.72
2023-12-15T07:19:44.911Z,98970.00
2023-12-15T07:22:11.514Z,98975.16
2023-12-15T07:24:38.091Z,98986.47
2023-12-15T07:27:05.766Z,98994.09
2023-12-15T07:29:32.452Z,99003.75
2023-12-15T07:31:59.266Z,99007.75
2023-12-15T07:34:25.991Z,99015.19
2023-12-15T07:36:52.706Z,99011.00
2023-12-15T07:39:22.439Z,99013.84
2023-12-15T07:41:49.742Z,99021.81
2023-12-15T07:44:17.044Z,99031.88
2023-12-15T07:46:45.081Z,99032.88
2023-12-15T07:49:12.040Z,99044.78
2023-12-15T07:51:38.724Z,99045.59
2023-12-15T07:54:05.598Z,99046.59
2023-12-15T07:56:32.292Z,99047.06
2023-12-15T07:58:58.877Z,99036.59
2023-12-15T08:01:25.877Z,99035.31
2023-12-15T08:03:52.589Z,99048.00
2023-12-15T08:06:19.814Z,99048.00
2023-12-15T08:08:48.268Z,99047.38
2023-12-15T08:11:15.005Z,99053.56
2023-12-15T08:13:42.405Z,99059.41
2023-12-15T08:16:14.058Z,99060.44
2023-12-15T08:18:45.179Z,99054.84
2023-12-15T08:21:12.616Z,99066.63
2023-12-15T08:23:39.397Z,99063.94
2023-12-15T08:26:06.265Z,99075.03
2023-12-15T08:28:32.956Z,99074.53
2023-12-15T08:31:00.194Z,99084.94
2023-12-15T08:33:28.734Z,99080.03
2023-12-15T08:35:55.592Z,99087.19
2023-12-15T08:38:22.257Z,99086.50
2023-12-15T08:40:48.949Z,99084.84
2023-12-15T08:43:15.605Z,99088.28
2023-12-15T08:45:42.208Z,99096.66
2023-12-15T08:48:09.539Z,99102.06
2023-12-15T08:50:36.438Z,99106.06
2023-12-15T08:53:03.611Z,99114.78
2023-12-15T08:55:30.649Z,99115.53
2023-12-15T08:57:57.426Z,99113.19
2023-12-15T09:00:24.725Z,99121.09
2023-12-15T09:02:53.744Z,99124.28
2023-12-15T09:05:38.764Z,99115.09
2023-12-15T09:08:11.562Z,99115.84
2023-12-15T09:10:43.468Z,99109.81
2023-12-15T09:13:10.963Z,99119.75
2023-12-15T09:15:37.565Z,99129.00
2023-12-15T09:18:04.693Z,99119.63
2023-12-15T09:20:31.949Z,99129.91
2023-12-15T09:22:58.606Z,99136.94
2023-12-15T09:25:25.255Z,99140.19
2023-12-15T09:27:51.957Z,99141.13
2023-12-15T09:30:18.684Z,99148.00
2023-12-15T09:32:45.525Z,99144.50
2023-12-15T09:35:12.212Z,99148.94
2023-12-15T09:37:39.012Z,99163.16
2023-12-15T09:40:06.474Z,99167.06
2023-12-15T09:42:33.088Z,99163.84
2023-12-15T09:45:06.752Z,99169.78
2023-12-15T09:47:37.525Z,99165.31
2023-12-15T09:50:06.938Z,99171.25
2023-12-15T09:52:35.647Z,99171.81
2023-12-15T09:55:03.558Z,99180.31
2023-12-15T09:57:30.950Z,99176.59
2023-12-15T09:59:58.373Z,99182.09
2023-12-15T10:02:26.472Z,99180.19
2023-12-15T10:04:54.045Z,99184.41
2023-12-15T10:07:20.663Z,99188.16
2023-12-15T10:09:48.175Z,99194.09
2023-12-15T10:12:14.731Z,99197.50
2023-12-15T10:14:41.434Z,99186.25
2023-12-15T10:17:12.020Z,99187.09
2023-12-15T10:19:39.156Z,99179.91
2023-12-15T10:22:07.048Z,99180.47
2023-12-15T10:24:35.074Z,99186.81
2023-12-15T10:27:03.732Z,99194.66
2023-12-15T10:29:31.035Z,99191.13
2023-12-15T10:31:59.153Z,99188.63
2023-12-15T10:34:27.884Z,99200.88
2023-12-15T10:36:55.352Z,99197.78
2023-12-15T10:39:23.388Z,99198.97
2023-12-15T10:41:52.974Z,99207.28
2023-12-15T10:44:22.119Z,99213.91
2023-12-15T10:46:49.387Z,99228.25
2023-12-15T10:49:16.810Z,99235.75
2023-12-15T10:51:44.563Z,99241.50
2023-12-15T10:54:11.298Z,99248.88
2023-12-15T10:56:39.269Z,99246.56
2023-12-15T10:59:07.033Z,99256.53
2023-12-15T11:01:36.967Z,99261.75
2023-12-15T11:04:17.454Z,99261.19
2023-12-15T11:06:44.342Z,99254.72
2023-12-15T11:09:11.685Z,99274.91
2023-12-15T11:11:39.168Z,99264.81
2023-12-15T11:14:05.992Z,99255.94
2023-12-15T11:16:36.688Z,99268.88
2023-12-15T11:19:03.923Z,99265.88
2023-12-15T11:21:31.328Z,99268.78
2023-12-15T11:24:00.876Z,99275.69
2023-12-15T11:26:30.886Z,99274.31
2023-12-15T11:29:03.772Z,99271.47
2023-12-15T11:31:31.806Z,99279.47
2023-12-15T11:33:58.493Z,99276.88
2023-12-15T11:36:29.063Z,99284.47
2023-12-15T11:38:55.829Z,99285.84
2023-12-15T11:41:24.315Z,99293.34
2023-12-15T11:43:52.075Z,99296.13
2023-12-15T11:46:22.428Z,99284.94
2023-12-15T11:48:49.183Z,99291.94
2023-12-15T11:51:16.139Z,99291.38
2023-12-15T11:53:43.904Z,99296.63
2023-12-15T11:56:11.401Z,99294.84
2023-12-15T11:58:38.859Z,99288.69
2023-12-15T12:01:06.249Z,99292.66
2023-12-15T12:03:32.996Z,99291.97
2023-12-15T12:06:00.373Z,99291.44
2023-12-15T12:08:27.161Z,99288.00
2023-12-15T12:11:01.602Z,99281.75
2023-12-15T12:13:37.358Z,99280.56
2023-12-15T12:16:05.137Z,99286.16
2023-12-15T12:18:32.790Z,99291.38
2023-12-15T12:21:05.347Z,99290.75
2023-12-15T12:23:41.764Z,99295.13
2023-12-15T12:26:13.111Z,99295.69
2023-12-15T12:28:46.657Z,99284.81
2023-12-15T12:31:13.888Z,99283.59
2023-12-15T12:33:40.537Z,99282.09
2023-12-15T12:36:08.889Z,99290.41
2023-12-15T12:38:38.643Z,99290.41
2023-12-15T12:41:07.411Z,99289.22
2023-12-15T12:43:34.821Z,99282.72
2023-12-15T12:46:01.761Z,99299.97
2023-12-15T12:48:29.860Z,99301.72
2023-12-15T12:50:56.806Z,99314.38
2023-12-15T12:53:23.502Z,99315.00
2023-12-15T12:55:50.109Z,99303.84
2023-12-15T12:58:18.050Z,99309.59
2023-12-15T13:00:44.782Z,99305.31
2023-12-15T13:03:11.826Z,99310.00
2023-12-15T13:05:38.674Z,99312.38
2023-12-15T13:08:05.483Z,99326.56
2023-12-15T13:10:32.135Z,99331.16
2023-12-15T13:12:58.694Z,99331.16
2023-12-15T13:15:25.468Z,99335.13
2023-12-15T13:17:55.111Z,99338.56
2023-12-15T13:20:25.946Z,99337.56
2023-12-15T13:22:52.782Z,99339.13
2023-12-15T13:25:19.711Z,99346.44
2023-12-15T13:27:49.368Z,99340.09
2023-12-15T13:30:16.545Z,99348.41
2023-12-15T13:32:43.484Z,99343.47
2023-12-15T13:35:10.727Z,99350.69
2023-12-15T13:37:37.510Z,99351.44
2023-12-15T13:40:05.362Z,99352.63
2023-12-15T13:42:32.099Z,99359.28
2023-12-15T13:44:58.823Z,99357.69
2023-12-15T13:47:25.901Z,99356.19
2023-12-15T13:49:52.689Z,99373.47
2023-12-15T13:52:20.725Z,99371.88
2023-12-15T13:54:47.624Z,99368.28
2023-12-15T13:57:18.443Z,99363.78
2023-12-15T13:59:45.151Z,99365.91
2023-12-15T14:02:12.224Z,99369.19
2023-12-15T14:04:38.807Z,99365.91
2023-12-15T14:07:05.819Z,99376.28
2023-12-15T14:09:32.757Z,99368.22
2023-12-15T14:11:59.370Z,99369.19
2023-12-15T14:14:26.225Z,99371.72
2023-12-15T14:16:54.035Z,99370.81
2023-12-15T14:19:20.782Z,99368.41
2023-12-15T14:21:48.641Z,99369.19
2023-12-15T14:24:19.550Z,99367.28
2023-12-15T14:26:46.659Z,99376.53
2023-12-15T14:29:13.628Z,99371.13
2023-12-15T14:31:40.379Z,99378.66
2023-12-15T14:34:07.283Z,99379.63
2023-12-15T14:36:34.157Z,99383.72
2023-12-15T14:39:00.936Z,99389.53
2023-12-15T14:41:28.501Z,99387.50
2023-12-15T14:43:55.390Z,99379.47
2023-12-15T14:46:22.056Z,99379.09
2023-12-15T14:48:49.190Z,99382.09
2023-12-15T14:51:16.436Z,99380.97
2023-12-15T14:53:43.174Z,99391.16
2023-12-15T14:56:12.356Z,99394.59
2023-12-15T14:58:40.795Z,99401.97
2023-12-15T15:01:08.232Z,99401.16
2023-12-15T15:03:35.343Z,99403.09
2023-12-15T15:06:02.739Z,99418.94
2023-12-15T15:08:33.488Z,99420.19
2023-12-15T15:11:00.250Z,99426.72
2023-12-15T15:13:27.152Z,99425.81
2023-12-15T15:15:53.840Z,99429.94
2023-12-15T15:18:22.218Z,99439.78
2023-12-15T15:20:49.261Z,99446.53
2023-12-15T15:23:16.113Z,99443.34
2023-12-15T15:25:42.928Z,99443.34
2023-12-15T15:28:09.635Z,99443.34
2023-12-15T15:30:37.750Z,99447.34
2023-12-15T15:33:04.549Z,99446.59
2023-12-15T15:35:32.208Z,99459.75
2023-12-15T15:38:00.143Z,99458.72
2023-12-15T15:40:27.053Z,99465.53
2023-12-15T15:42:53.811Z,99464.59
2023-12-15T15:45:20.953Z,99468.53
2023-12-15T15:47:48.833Z,99468.72
2023-12-15T15:50:15.678Z,99476.91
2023-12-15T15:52:42.332Z,99477.66
2023-12-15T15:55:09.617Z,99476.91
2023-12-15T15:57:37.427Z,99479.25
2023-12-15T16:00:05.603Z,99483.63
2023-12-15T16:02:32.489Z,99488.41
2023-12-15T16:04:59.861Z,99478.88
2023-12-15T16:07:26.573Z,99478.88
2023-12-15T16:09:53.435Z,99488.09
2023-12-15T16:12:20.780Z,99491.66
2023-12-15T16:14:47.407Z,99493.16
2023-12-15T16:17:13.998Z,99489.63
2023-12-15T16:19:40.802Z,99495.03
2023-12-15T16:22:07.717Z,99503.97
2023-12-15T16:24:34.439Z,99503.03
2023-12-15T16:27:01.051Z,99507.50
2023-12-15T16:29:27.735Z,99515.44
2023-12-15T16:31:54.855Z,99513.00
2023-12-15T16:34:21.882Z,99517.22
2023-12-15T16:36:48.606Z,99514.97
2023-12-15T16:39:15.469Z,99524.13
2023-12-15T16:41:42.394Z,99517.78
2023-12-15T16:44:09.003Z,99513.13
2023-12-15T16:46:36.353Z,99523.00
2023-12-15T16:49:05.076Z,99525.59
2023-12-15T16:51:36.949Z,99526.63
2023-12-15T16:54:04.372Z,99526.81
2023-12-15T16:56:31.320Z,99515.53
2023-12-15T16:58:57.979Z,99515.63
2023-12-15T17:01:25.378Z,99512.38
2023-12-15T17:03:52.352Z,99515.06
2023-12-15T17:06:19.006Z,99518.81
2023-12-15T17:08:45.798Z,99521.97
2023-12-15T17:11:13.376Z,99510.97
2023-12-15T17:13:40.703Z,99530.66
2023-12-15T17:16:14.063Z,99531.00
2023-12-15T17:18:41.028Z,99532.53
2023-12-15T17:21:13.093Z,99539.59
2023-12-15T17:23:45.900Z,99553.31
2023-12-15T17:26:17.748Z,99554.53
2023-12-15T17:28:45.261Z,99556.78
2023-12-15T17:31:12.247Z,99554.25
2023-12-15T17:33:39.167Z,99556.97
2023-12-15T17:36:06.014Z,99541.09
2023-12-15T17:38:32.708Z,99548.66
2023-12-15T17:40:59.370Z,99553.22
2023-12-15T17:43:25.998Z,99550.59
2023-12-15T17:45:53.094Z,99543.06
2023-12-15T17:48:21.628Z,99550.59
2023-12-15T17:50:49.528Z,99546.97
2023-12-15T17:53:16.504Z,99546.69
2023-12-15T17:55:43.802Z,99553.13
2023-12-15T17:58:12.677Z,99552.28
2023-12-15T18:00:43.298Z,99547.06
2023-12-15T18:03:11.012Z,99555.84
2023-12-15T18:05:37.752Z,99558.06
2023-12-15T18:08:04.650Z,99555.66
2023-12-15T18:10:31.489Z,99555.84
2023-12-15T18:12:58.211Z,99555.28
2023-12-15T18:15:25.063Z,99551.91
2023-12-15T18:17:51.763Z,99546.63
2023-12-15T18:20:19.488Z,99553.69
2023-12-15T18:22:46.942Z,99559.59
2023-12-15T18:25:16.305Z,99556.59
2023-12-15T18:27:43.680Z,99548.22
2023-12-15T18:30:11.293Z,99549.41
2023-12-15T18:32:38.343Z,99549.88
2023-12-15T18:35:05.849Z,99552.28
2023-12-15T18:37:32.603Z,99549.88
2023-12-15T18:39:59.339Z,99545.03
2023-12-15T18:42:26.150Z,99548.38
2023-12-15T18:44:52.857Z,99561.34
2023-12-15T18:47:19.467Z,99560.31
2023-12-15T18:49:46.471Z,99562.94
2023-12-15T18:52:14.418Z,99565.19
2023-12-15T18:54:41.049Z,99566.97
2023-12-15T18:57:07.628Z,99562.28
2023-12-15T18:59:34.286Z,99568.16
2023-12-15T19:02:01.126Z,99568.53
2023-12-15T19:04:28.861Z,99564.63
2023-12-15T19:06:55.621Z,99569.84
2023-12-15T19:09:22.202Z,99571.22
2023-12-15T19:11:48.807Z,99577.13
2023-12-15T19:14:15.962Z,99573.84
2023-12-15T19:16:42.597Z,99571.03
2023-12-15T19:19:10.360Z,99577.28
2023-12-15T19:21:37.185Z,99578.97
2023-12-15T19:24:06.317Z,99574.78
2023-12-15T19:26:32.924Z,99579.81
2023-12-15T19:29:01.456Z,99589.44
2023-12-15T19:31:28.576Z,99584.50
2023-12-15T19:33:56.283Z,99588.44
2023-12-15T19:36:23.245Z,99598.41
2023-12-15T19:38:49.959Z,99596.25
2023-12-15T19:41:19.724Z,99601.41
2023-12-15T19:43:47.481Z,99596.25
2023-12-15T19:46:21.820Z,99595.22
2023-12-15T19:48:48.674Z,99597.38
2023-12-15T19:51:19.616Z,99612.03
2023-12-15T19:53:46.523Z,99612.50
2023-12-15T19:56:23.153Z,99614.47
2023-12-15T19:58:50.672Z,99613.03
2023-12-15T20:01:27.497Z,99621.91
2023-12-15T20:03:58.538Z,99623.06
2023-12-15T20:06:28.742Z,99623.50
2023-12-15T20:08:57.383Z,99628.66
2023-12-15T20:11:24.322Z,99621.91
2023-12-15T20:13:51.049Z,99629.59
2023-12-15T20:16:17.974Z,99630.31
2023-12-15T20:18:44.722Z,99630.13
2023-12-15T20:21:11.419Z,99628.84
2023-12-15T20:23:39.528Z,99623.25
2023-12-15T20:26:09.967Z,99628.84
2023-12-15T20:28:37.177Z,99634.34
2023-12-15T20:31:07.506Z,99636.84
2023-12-15T20:33:34.496Z,99648.44
2023-12-15T20:36:01.238Z,99649.94
2023-12-15T20:38:28.681Z,99651.88
2023-12-15T20:40:56.621Z,99647.22
2023-12-15T20:43:23.997Z,99643.31
2023-12-15T20:45:50.873Z,99634.63
2023-12-15T20:48:17.817Z,99639.84
2023-12-15T20:50:44.947Z,99632.09
2023-12-15T20:53:11.550Z,99635.81
2023-12-15T20:55:38.288Z,99630.88
2023-12-15T20:58:05.664Z,99634.53
2023-12-15T21:00:34.926Z,99637.16
2023-12-15T21:03:02.006Z,99642.44
2023-12-15T21:05:30.107Z,99637.03
2023-12-15T21:07:59.550Z,99631.63
2023-12-15T21:10:26.299Z,99635.06
2023-12-15T21:12:53.341Z,99633.47
2023-12-15T21:15:20.761Z,99630.50
2023-12-15T21:17:47.638Z,99632.91
2023-12-15T21:20:14.631Z,99631.41
2023-12-15T21:22:42.673Z,99646.00
2023-12-15T21:25:09.521Z,99641.03
2023-12-15T21:27:36.481Z,99626.66
2023-12-15T21:30:04.766Z,99635.53
2023-12-15T21:32:31.534Z,99639.78
2023-12-15T21:34:58.243Z,99641.56
2023-12-15T21:37:24.885Z,99655.19
2023-12-15T21:39:51.573Z,99658.81
2023-12-15T21:42:18.256Z,99658.22
2023-12-15T21:44:44.954Z,99673.06
2023-12-15T21:47:11.690Z,99663.19
2023-12-15T21:49:42.304Z,99671.84
2023-12-15T21:52:10.579Z,99669.22
2023-12-15T21:54:37.213Z,99671.47
2023-12-15T21:57:08.025Z,99666.69
2023-12-15T21:59:35.126Z,99667.50
2023-12-15T22:02:01.901Z,99671.75
2023-12-15T22:04:28.725Z,99662.69
2023-12-15T22:06:57.120Z,99681.31
2023-12-15T22:09:23.748Z,99678.13
2023-12-15T22:11:50.368Z,99693.13
2023-12-15T22:14:17.822Z,99682.22
2023-12-15T22:16:46.636Z,99685.56
2023-12-15T22:19:13.342Z,99692.00
2023-12-15T22:21:40.527Z,99694.09
2023-12-15T22:24:07.401Z,99687.53
2023-12-15T22:26:34.001Z,99681.19
2023-12-15T22:29:00.597Z,99697.31
2023-12-15T22:31:27.248Z,99697.31
2023-12-15T22:33:54.074Z,99688.94
2023-12-15T22:36:22.906Z,99678.63
2023-12-15T22:38:49.951Z,99690.63
2023-12-15T22:41:16.763Z,99692.66
2023-12-15T22:43:43.361Z,99698.22
2023-12-15T22:46:10.026Z,99699.19
2023-12-15T22:48:36.688Z,99695.19
2023-12-15T22:51:06.671Z,99699.19
2023-12-15T22:53:36.365Z,99693.75
2023-12-15T22:56:09.393Z,99681.00
2023-12-15T22:58:36.801Z,99685.09
2023-12-15T23:01:03.978Z,99695.31
2023-12-15T23:03:30.781Z,99696.09
2023-12-15T23:05:58.520Z,99685.84
2023-12-15T23:08:26.809Z,99671.31
2023-12-15T23:10:53.489Z,99676.06
2023-12-15T23:13:20.151Z,99678.03
2023-12-15T23:15:46.914Z,99673.88
2023-12-15T23:18:13.943Z,99688.31
2023-12-15T23:20:40.588Z,99691.16
2023-12-15T23:23:07.160Z,99714.91
2023-12-15T23:25:33.788Z,99703.16
2023-12-15T23:28:00.956Z,99703.28
2023-12-15T23:30:27.829Z,99705.69
2023-12-15T23:32:54.548Z,99713.34
2023-12-15T23:35:21.567Z,99714.56
2023-12-15T23:37:48.128Z,99715.03
2023-12-15T23:40:14.844Z,99701.97
2023-12-15T23:42:41.587Z,99711.41
2023-12-15T23:45:08.620Z,99715.44
2023-12-15T23:47:35.505Z,99714.34
2023-12-15T23:50:02.278Z,99720.50
2023-12-15T23:52:28.901Z,99720.97
2023-12-15T23:54:57.143Z,99714.22
2023-12-15T23:57:23.858Z,99731.81
2023-12-15T23:59:50.588Z,99737.63
